Time;durP1;ratioP1;P1;durP2;ratioP2;P2;SDS_P1;SDS_P2;PMS_P1;PMS_P2;Temp;Humidity;BMP_temperature;BMP_pressure;BME280_temperature;BME280_humidity;BME280_pressure;Samples;Min_cycle;Max_cycle;Signal;HPM_P1;HPM_P2
2021/04/25 00:00:08;;;;;;;19.38;9.00;;;7.60;91.60;;;;;;4920043;29;20063;-91
2021/04/25 00:02:34;;;;;;;26.98;9.25;;;7.60;91.80;;;;;;4934864;29;20027;-91
2021/04/25 00:05:00;;;;;;;15.57;8.02;;;7.50;92.00;;;;;;4936395;29;20034;-91
2021/04/25 00:07:26;;;;;;;17.30;7.65;;;7.50;92.20;;;;;;4936355;29;20495;-91
2021/04/25 00:09:51;;;;;;;13.32;6.32;;;7.60;92.30;;;;;;4904302;29;20483;-90
2021/04/25 00:12:17;;;;;;;14.23;6.82;;;7.50;92.50;;;;;;4918776;29;20554;-91
2021/04/25 00:14:43;;;;;;;13.13;7.32;;;7.40;92.70;;;;;;4921167;29;20036;-91
2021/04/25 00:17:09;;;;;;;26.77;7.97;;;7.40;92.90;;;;;;4939587;29;20091;-91
2021/04/25 00:19:34;;;;;;;14.70;6.35;;;7.30;93.30;;;;;;4922729;29;20032;-91
2021/04/25 00:22:00;;;;;;;18.75;7.25;;;7.40;93.20;;;;;;4920353;29;20024;-91
2021/04/25 00:24:25;;;;;;;19.77;6.95;;;7.30;93.30;;;;;;4920420;29;20020;-92
2021/04/25 00:26:51;;;;;;;18.20;7.90;;;7.20;93.50;;;;;;4920751;29;20038;-91
2021/04/25 00:29:17;;;;;;;20.45;7.70;;;7.20;94.00;;;;;;4922066;29;20051;-93
2021/04/25 00:31:43;;;;;;;15.70;8.05;;;7.20;93.90;;;;;;4922107;29;20091;-91
2021/04/25 00:34:08;;;;;;;17.98;7.85;;;7.10;94.00;;;;;;4923813;29;20062;-92
2021/04/25 00:36:34;;;;;;;18.33;7.93;;;7.20;94.20;;;;;;4926915;29;20138;-93
2021/04/25 00:39:00;;;;;;;21.02;7.78;;;7.10;94.30;;;;;;4939928;29;20039;-91
2021/04/25 00:41:25;;;;;;;27.52;8.13;;;7.10;94.50;;;;;;4939919;29;20034;-92
2021/04/25 00:43:54;;;;;;;19.67;8.20;;;7.10;94.60;;;;;;4942693;29;20030;-92
2021/04/25 00:46:24;;;;;;;18.90;6.97;;;7.10;94.80;;;;;;4942240;29;20078;-92
2021/04/25 00:48:51;;;;;;;24.75;9.30;;;7.10;94.90;;;;;;4925824;29;20023;-92
2021/04/25 00:51:23;;;;;;;21.33;7.90;;;7.10;95.00;;;;;;4907561;29;20032;-92
2021/04/25 00:53:51;;;;;;;17.42;7.78;;;7.00;95.20;;;;;;4906370;29;20075;-92
2021/04/25 00:56:18;;;;;;;22.17;9.60;;;7.00;95.40;;;;;;4922278;29;20035;-92
2021/04/25 00:58:43;;;;;;;18.60;9.23;;;6.90;95.60;;;;;;4923729;29;20031;-91
2021/04/25 01:01:10;;;;;;;17.70;7.78;;;6.90;95.80;;;;;;4923648;29;20051;-91
2021/04/25 01:03:36;;;;;;;23.35;8.43;;;6.90;95.90;;;;;;4940851;29;20032;-91
2021/04/25 01:06:02;;;;;;;23.23;8.57;;;7.00;96.00;;;;;;4921631;29;20031;-92
2021/04/25 01:08:28;;;;;;;22.90;9.32;;;6.90;96.10;;;;;;4921542;29;20046;-92
2021/04/25 01:10:54;;;;;;;23.85;9.30;;;7.00;96.20;;;;;;4921042;29;20020;-91
2021/04/25 01:13:19;;;;;;;18.25;8.25;;;6.90;96.30;;;;;;4920778;29;20040;-92
2021/04/25 01:15:45;;;;;;;26.55;8.80;;;6.90;96.40;;;;;;4922339;29;20067;-90
2021/04/25 01:18:11;;;;;;;21.92;7.78;;;6.90;96.60;;;;;;4920684;29;20028;-91
2021/04/25 01:20:37;;;;;;;22.65;9.25;;;6.80;96.70;;;;;;4921100;29;20086;-92
2021/04/25 01:23:03;;;;;;;23.05;10.02;;;6.80;96.70;;;;;;4938329;29;20475;-91
2021/04/25 01:25:30;;;;;;;22.67;9.23;;;6.80;96.90;;;;;;4920170;29;20059;-92
2021/04/25 01:27:56;;;;;;;22.45;8.32;;;6.70;96.90;;;;;;4921289;29;20506;-91
2021/04/25 01:30:28;;;;;;;26.85;11.77;;;6.70;97.10;;;;;;4921994;29;20055;-91
2021/04/25 01:32:54;;;;;;;25.35;10.07;;;6.60;97.20;;;;;;4918458;29;20027;-90
2021/04/25 01:35:22;;;;;;;23.85;10.02;;;6.60;97.30;;;;;;4922630;29;20123;-92
2021/04/25 01:37:49;;;;;;;23.98;9.52;;;6.60;97.50;;;;;;4920036;29;20024;-90
2021/04/25 01:40:15;;;;;;;26.25;10.82;;;6.60;97.60;;;;;;4918876;29;20722;-92
2021/04/25 01:42:42;;;;;;;23.20;10.38;;;6.60;97.80;;;;;;4922624;29;20167;-91
2021/04/25 01:45:15;;;;;;;28.23;10.85;;;6.50;97.90;;;;;;4917997;29;20484;-92
2021/04/25 01:47:49;;;;;;;27.58;10.48;;;6.50;98.00;;;;;;4918626;29;20480;-92
2021/04/25 01:50:17;;;;;;;32.00;10.30;;;6.50;98.10;;;;;;4918274;29;20122;-92
2021/04/25 01:52:43;;;;;;;29.42;9.90;;;6.40;98.30;;;;;;4919164;29;20064;-92
2021/04/25 01:55:09;;;;;;;20.90;9.65;;;6.40;98.40;;;;;;4918415;29;20032;-93
2021/04/25 01:57:35;;;;;;;24.02;8.65;;;6.50;98.50;;;;;;4919915;29;20047;-90
2021/04/25 02:00:08;;;;;;;20.35;8.45;;;6.40;98.60;;;;;;4920381;29;20036;-92
2021/04/25 02:02:34;;;;;;;21.85;8.93;;;6.40;98.70;;;;;;4927799;29;20025;-91
2021/04/25 02:05:00;;;;;;;29.48;10.20;;;6.40;98.90;;;;;;4930144;29;20028;-91
2021/04/25 02:07:26;;;;;;;28.13;10.45;;;6.40;99.00;;;;;;4939279;29;20042;-92
2021/04/25 02:09:52;;;;;;;22.15;9.93;;;6.30;99.10;;;;;;4938523;29;20052;-90
2021/04/25 02:12:17;;;;;;;22.15;9.80;;;6.40;99.30;;;;;;4938108;29;20631;-91
2021/04/25 02:14:43;;;;;;;24.08;10.70;;;6.40;99.30;;;;;;4933387;29;20047;-90
2021/04/25 02:17:10;;;;;;;22.35;9.82;;;6.40;99.40;;;;;;4924892;29;20035;-92
2021/04/25 02:19:36;;;;;;;26.50;11.25;;;6.40;99.40;;;;;;4922141;29;20040;-90
2021/04/25 02:22:06;;;;;;;26.90;10.05;;;6.40;99.50;;;;;;4920705;29;20046;-92
2021/04/25 02:24:32;;;;;;;21.90;9.35;;;6.40;99.50;;;;;;4920705;29;20031;-91
2021/04/25 02:26:58;;;;;;;23.38;8.57;;;6.40;99.50;;;;;;4924623;29;20092;-91
2021/04/25 02:29:23;;;;;;;25.85;8.80;;;6.30;99.70;;;;;;4924273;29;20032;-92
2021/04/25 02:31:49;;;;;;;23.33;9.23;;;6.30;99.70;;;;;;4923424;29;20060;-92
2021/04/25 02:34:15;;;;;;;26.48;9.35;;;6.30;99.80;;;;;;4919901;29;20024;-92
2021/04/25 02:36:41;;;;;;;22.08;9.10;;;6.30;99.80;;;;;;4921540;29;20531;-90
2021/04/25 02:39:07;;;;;;;27.80;10.05;;;6.30;99.90;;;;;;4917691;29;20044;-90
2021/04/25 02:41:33;;;;;;;21.77;9.18;;;6.20;99.90;;;;;;4917542;29;20044;-91
2021/04/25 02:43:59;;;;;;;28.60;11.05;;;6.20;99.90;;;;;;4917420;29;20050;-90
2021/04/25 02:46:24;;;;;;;26.88;10.00;;;6.10;99.90;;;;;;4917000;29;20392;-92
2021/04/25 02:48:50;;;;;;;25.30;10.38;;;6.00;99.90;;;;;;4916695;29;20024;-90
2021/04/25 02:51:16;;;;;;;29.25;10.85;;;6.00;99.90;;;;;;4918542;29;20108;-90
2021/04/25 02:53:41;;;;;;;30.02;10.38;;;6.00;99.90;;;;;;4918604;29;20059;-92
2021/04/25 02:56:07;;;;;;;21.60;9.75;;;6.00;99.90;;;;;;4917987;29;20051;-90
2021/04/25 02:58:33;;;;;;;26.83;11.13;;;6.00;99.90;;;;;;4916461;29;20031;-91
2021/04/25 03:00:58;;;;;;;22.17;8.98;;;6.00;99.90;;;;;;4917000;29;20076;-91
2021/04/25 03:03:25;;;;;;;24.63;9.68;;;6.00;99.90;;;;;;4920065;29;20036;-91
2021/04/25 03:05:55;;;;;;;31.05;11.20;;;5.90;99.90;;;;;;4920577;29;20044;-91
2021/04/25 03:08:21;;;;;;;29.95;11.88;;;5.90;99.90;;;;;;4919399;29;20079;-91
2021/04/25 03:10:46;;;;;;;25.45;10.88;;;5.90;99.90;;;;;;4918361;29;20106;-92
2021/04/25 03:13:12;;;;;;;25.70;11.07;;;5.90;99.90;;;;;;4916692;29;20035;-92
2021/04/25 03:15:38;;;;;;;28.27;12.02;;;5.90;99.90;;;;;;4917786;29;20039;-91
2021/04/25 03:18:03;;;;;;;30.27;12.75;;;5.80;99.90;;;;;;4916582;29;20091;-91
2021/04/25 03:20:29;;;;;;;25.40;10.75;;;5.80;99.90;;;;;;4915840;29;20119;-91
2021/04/25 03:22:55;;;;;;;30.95;12.45;;;5.80;99.90;;;;;;4916639;29;20021;-91
2021/04/25 03:25:20;;;;;;;27.98;13.05;;;5.80;99.90;;;;;;4920183;29;20029;-91
2021/04/25 03:27:47;;;;;;;31.13;12.70;;;5.70;99.90;;;;;;4919277;29;20032;-92
2021/04/25 03:30:14;;;;;;;36.35;15.27;;;5.70;99.90;;;;;;4919696;29;20039;-92
2021/04/25 03:32:41;;;;;;;32.38;13.32;;;5.60;99.90;;;;;;4916619;29;20047;-92
2021/04/25 03:35:10;;;;;;;26.05;11.10;;;5.60;99.90;;;;;;4916148;29;20020;-91
2021/04/25 03:37:36;;;;;;;33.60;12.60;;;5.50;99.90;;;;;;4917025;29;20043;-91
2021/04/25 03:40:04;;;;;;;30.77;13.80;;;5.50;99.90;;;;;;4929043;29;20048;-91
2021/04/25 03:42:29;;;;;;;27.98;11.93;;;5.50;99.90;;;;;;4935785;29;20035;-90
2021/04/25 03:44:55;;;;;;;25.60;12.07;;;5.50;99.90;;;;;;4937291;29;20036;-90
2021/04/25 03:47:21;;;;;;;35.95;14.02;;;5.50;99.90;;;;;;4919759;29;20043;-89
2021/04/25 03:49:46;;;;;;;32.45;13.82;;;5.40;99.90;;;;;;4935559;29;20059;-89
2021/04/25 03:52:13;;;;;;;30.40;11.82;;;5.40;99.90;;;;;;4935032;29;20031;-91
2021/04/25 03:54:39;;;;;;;30.33;13.90;;;5.40;99.90;;;;;;4935234;29;20125;-90
2021/04/25 03:57:05;;;;;;;35.35;15.02;;;5.40;99.90;;;;;;4920007;29;20491;-91
2021/04/25 03:59:31;;;;;;;33.50;12.65;;;5.40;99.90;;;;;;4917786;29;20114;-89
2021/04/25 04:01:57;;;;;;;34.08;14.05;;;5.30;99.90;;;;;;4919211;29;20076;-92
2021/04/25 04:04:23;;;;;;;26.17;12.80;;;5.20;99.90;;;;;;4939493;29;20110;-89
2021/04/25 04:06:50;;;;;;;30.10;13.18;;;5.20;99.90;;;;;;4923050;29;20050;-91
2021/04/25 04:09:17;;;;;;;28.35;12.82;;;5.20;99.90;;;;;;4944187;29;20038;-89
2021/04/25 04:11:44;;;;;;;39.20;14.35;;;5.20;99.90;;;;;;4925555;29;20123;-92
2021/04/25 04:14:10;;;;;;;35.67;13.45;;;5.10;99.90;;;;;;4938631;29;20055;-89
2021/04/25 04:16:36;;;;;;;36.03;14.50;;;5.10;99.90;;;;;;4921540;29;20122;-91
2021/04/25 04:19:01;;;;;;;33.60;15.60;;;5.10;99.90;;;;;;4922184;29;20047;-91
2021/04/25 04:21:27;;;;;;;27.02;11.77;;;5.00;99.90;;;;;;4938971;29;20497;-90
2021/04/25 04:23:53;;;;;;;34.97;13.07;;;5.00;99.90;;;;;;4942602;29;20028;-91
2021/04/25 04:26:20;;;;;;;25.42;11.73;;;5.00;99.90;;;;;;4925075;29;20518;-89
2021/04/25 04:28:45;;;;;;;29.95;12.75;;;5.00;99.90;;;;;;4921451;29;20016;-91
2021/04/25 04:31:11;;;;;;;35.88;13.23;;;5.00;99.90;;;;;;4924160;29;20055;-91
2021/04/25 04:33:37;;;;;;;33.00;12.60;;;4.90;99.90;;;;;;4925686;29;20039;-92
2021/04/25 04:36:06;;;;;;;31.92;13.27;;;4.90;99.90;;;;;;4922055;29;20043;-91
2021/04/25 04:38:32;;;;;;;30.05;12.82;;;4.90;99.90;;;;;;4921916;29;20019;-90
2021/04/25 04:40:58;;;;;;;30.85;13.10;;;4.80;99.90;;;;;;4923645;29;20079;-90
2021/04/25 04:43:24;;;;;;;27.33;12.18;;;4.80;99.90;;;;;;4939049;29;20035;-91
2021/04/25 04:45:51;;;;;;;30.90;12.18;;;4.70;99.90;;;;;;4921166;29;20038;-90
2021/04/25 04:48:17;;;;;;;32.08;12.90;;;4.70;99.90;;;;;;4921045;29;20494;-91
2021/04/25 04:50:43;;;;;;;33.72;11.90;;;4.70;99.90;;;;;;4938008;29;20036;-92
2021/04/25 04:53:08;;;;;;;32.22;12.98;;;4.70;99.90;;;;;;4941068;29;20028;-91
2021/04/25 04:55:34;;;;;;;29.63;12.82;;;4.70;99.90;;;;;;4942759;29;20036;-90
2021/04/25 04:58:00;;;;;;;27.17;13.18;;;4.70;99.90;;;;;;4921162;29;20083;-92
2021/04/25 05:00:25;;;;;;;31.40;13.25;;;4.70;99.90;;;;;;4921063;29;20430;-92
2021/04/25 05:02:51;;;;;;;32.50;13.52;;;4.70;99.90;;;;;;4921310;29;20042;-91
2021/04/25 05:05:17;;;;;;;29.95;12.57;;;4.60;99.90;;;;;;4920910;29;20032;-90
2021/04/25 05:07:43;;;;;;;30.38;12.30;;;4.60;99.90;;;;;;4938967;29;20510;-91
2021/04/25 05:10:09;;;;;;;38.85;14.68;;;4.60;99.90;;;;;;4939337;29;20031;-91
2021/04/25 05:12:35;;;;;;;34.17;13.65;;;4.60;99.90;;;;;;4940806;29;20032;-91
2021/04/25 05:15:01;;;;;;;37.15;13.93;;;4.60;99.90;;;;;;4926906;29;20039;-90
2021/04/25 05:17:26;;;;;;;41.35;14.45;;;4.60;99.90;;;;;;4947980;29;20028;-90
2021/04/25 05:19:53;;;;;;;36.55;14.02;;;4.60;99.90;;;;;;4933512;29;20039;-90
2021/04/25 05:22:19;;;;;;;37.80;14.98;;;4.60;99.90;;;;;;4930474;29;20035;-90
2021/04/25 05:24:44;;;;;;;36.15;14.70;;;4.70;99.90;;;;;;4948908;29;20028;-89
2021/04/25 05:27:10;;;;;;;34.88;13.93;;;4.70;99.90;;;;;;4945847;29;20444;-90
2021/04/25 05:29:36;;;;;;;41.92;15.32;;;4.80;99.90;;;;;;4924163;29;20031;-90
2021/04/25 05:32:02;;;;;;;43.10;14.18;;;4.80;99.90;;;;;;4926561;29;20032;-90
2021/04/25 05:34:28;;;;;;;31.48;13.35;;;4.90;99.90;;;;;;4927290;29;20051;-91
2021/04/25 05:36:54;;;;;;;33.30;13.77;;;4.90;99.90;;;;;;4931687;29;20051;-92
2021/04/25 05:39:19;;;;;;;28.95;12.45;;;4.90;99.90;;;;;;4932954;29;20047;-92
2021/04/25 05:41:45;;;;;;;34.25;13.63;;;5.00;99.90;;;;;;4940833;29;20039;-91
2021/04/25 05:44:11;;;;;;;35.85;13.43;;;5.00;99.90;;;;;;4956831;29;20035;-89
2021/04/25 05:46:36;;;;;;;36.10;12.73;;;5.00;99.90;;;;;;4940179;28;20016;-89
2021/04/25 05:49:03;;;;;;;32.78;12.55;;;5.00;99.90;;;;;;4941082;29;20934;-90
2021/04/25 05:51:29;;;;;;;27.60;11.00;;;5.10;99.90;;;;;;4937105;29;20079;-89
2021/04/25 05:53:55;;;;;;;30.13;12.15;;;5.10;99.90;;;;;;4925903;29;20031;-89
2021/04/25 05:56:21;;;;;;;28.98;12.48;;;5.20;99.90;;;;;;4924503;29;20072;-89
2021/04/25 05:58:48;;;;;;;27.10;11.15;;;5.30;99.90;;;;;;4924720;29;20024;-89
2021/04/25 06:01:15;;;;;;;36.28;13.02;;;5.30;99.90;;;;;;4923294;29;20479;-90
2021/04/25 06:03:40;;;;;;;24.60;11.00;;;5.30;99.90;;;;;;4920055;29;20043;-89
2021/04/25 06:06:06;;;;;;;32.67;13.38;;;5.40;99.90;;;;;;4922963;29;20028;-90
2021/04/25 06:08:32;;;;;;;28.80;11.18;;;5.40;99.90;;;;;;4922230;29;20035;-90
2021/04/25 06:10:58;;;;;;;29.20;11.60;;;5.40;99.90;;;;;;4921437;29;20035;-89
2021/04/25 06:13:23;;;;;;;22.55;10.63;;;5.50;99.90;;;;;;4920550;29;20096;-89
2021/04/25 06:15:49;;;;;;;28.15;10.48;;;5.40;99.90;;;;;;4920435;29;20349;-90
2021/04/25 06:18:17;;;;;;;26.45;11.25;;;5.50;99.90;;;;;;4920088;29;20349;-91
2021/04/25 06:20:43;;;;;;;23.80;9.80;;;5.50;99.90;;;;;;4920704;29;20042;-90
2021/04/25 06:23:09;;;;;;;26.70;10.63;;;5.50;99.90;;;;;;4920211;29;20023;-90
2021/04/25 06:25:35;;;;;;;24.60;9.63;;;5.60;99.90;;;;;;4918330;29;20028;-90
2021/04/25 06:28:00;;;;;;;21.48;10.07;;;5.60;99.90;;;;;;4903466;29;20086;-90
2021/04/25 06:30:26;;;;;;;20.00;8.55;;;5.70;99.90;;;;;;4919250;29;20110;-90
2021/04/25 06:32:52;;;;;;;24.50;9.27;;;5.80;99.90;;;;;;4920463;29;20499;-90
2021/04/25 06:35:18;;;;;;;19.15;8.25;;;5.80;99.90;;;;;;4921769;29;20480;-91
2021/04/25 06:37:46;;;;;;;25.70;9.10;;;5.90;99.90;;;;;;4920198;29;20031;-90
2021/04/25 06:40:14;;;;;;;22.27;8.70;;;6.00;99.90;;;;;;4920273;29;21451;-91
2021/04/25 06:42:40;;;;;;;21.17;8.68;;;6.00;99.90;;;;;;4920127;29;20028;-90
2021/04/25 06:45:13;;;;;;;21.40;9.55;;;6.00;99.90;;;;;;4919091;29;20507;-90
2021/04/25 06:47:39;;;;;;;21.30;10.55;;;6.10;99.90;;;;;;4918245;29;20605;-91
2021/04/25 06:50:10;;;;;;;23.90;9.40;;;6.20;99.90;;;;;;4920691;29;20472;-91
2021/04/25 06:52:35;;;;;;;24.05;10.15;;;6.20;99.90;;;;;;4937217;29;20119;-88
2021/04/25 06:55:01;;;;;;;22.85;8.85;;;6.30;99.90;;;;;;4917898;29;20103;-90
2021/04/25 06:57:29;;;;;;;22.55;8.48;;;6.40;99.90;;;;;;4918510;29;20040;-90
2021/04/25 06:59:55;;;;;;;26.83;10.32;;;6.40;99.90;;;;;;4918453;29;20583;-91
2021/04/25 07:02:21;;;;;;;20.70;10.10;;;6.50;99.90;;;;;;4920816;29;20126;-90
2021/04/25 07:04:47;;;;;;;19.40;9.23;;;6.60;99.90;;;;;;4922637;29;20020;-90
2021/04/25 07:07:12;;;;;;;25.48;9.45;;;6.60;99.90;;;;;;4938303;29;20491;-90
2021/04/25 07:09:39;;;;;;;21.98;8.95;;;6.70;99.90;;;;;;4919641;29;20027;-91
2021/04/25 07:12:06;;;;;;;30.80;9.93;;;6.70;99.90;;;;;;4920068;29;20035;-91
2021/04/25 07:14:31;;;;;;;25.13;9.50;;;6.80;99.90;;;;;;4919251;29;20019;-90
2021/04/25 07:16:58;;;;;;;18.65;7.43;;;6.90;99.90;;;;;;4918495;29;20042;-91
2021/04/25 07:19:24;;;;;;;19.17;8.18;;;6.90;99.90;;;;;;4918254;29;20111;-89
2021/04/25 07:21:52;;;;;;;20.23;7.30;;;6.90;99.90;;;;;;4918216;29;20543;-90
2021/04/25 07:24:18;;;;;;;20.75;7.40;;;7.00;99.90;;;;;;4919824;29;20063;-91
2021/04/25 07:26:43;;;;;;;21.38;8.20;;;7.10;99.90;;;;;;4921413;29;20035;-91
2021/04/25 07:29:09;;;;;;;19.15;8.52;;;7.10;99.90;;;;;;4917547;29;20016;-89
2021/04/25 07:31:35;;;;;;;18.63;7.95;;;7.10;99.90;;;;;;4917499;29;20520;-90
2021/04/25 07:34:00;;;;;;;22.27;8.40;;;7.20;99.90;;;;;;4918917;29;20059;-90
2021/04/25 07:36:27;;;;;;;18.58;7.80;;;7.30;99.90;;;;;;4937051;29;20050;-90
2021/04/25 07:38:53;;;;;;;16.27;7.47;;;7.40;99.90;;;;;;4923344;29;20028;-91
2021/04/25 07:43:44;;;;;;;19.95;7.88;;;7.60;99.90;;;;;;4962559;23;20088;-91
2021/04/25 07:46:10;;;;;;;18.10;7.22;;;7.60;99.90;;;;;;4958833;29;20086;-90
2021/04/25 07:48:35;;;;;;;16.77;7.30;;;7.70;99.90;;;;;;4940940;29;20023;-90
2021/04/25 07:51:02;;;;;;;16.65;6.75;;;7.80;99.90;;;;;;4940482;29;20032;-90
2021/04/25 07:53:28;;;;;;;14.50;5.88;;;7.90;99.90;;;;;;4955948;29;20026;-90
2021/04/25 07:55:54;;;;;;;13.48;6.45;;;7.90;99.90;;;;;;4955410;29;20057;-90
2021/04/25 07:58:20;;;;;;;10.18;4.47;;;7.90;99.90;;;;;;4955255;29;20023;-90
2021/04/25 08:00:45;;;;;;;11.55;5.00;;;7.90;99.90;;;;;;4941626;29;20618;-89
2021/04/25 08:03:11;;;;;;;14.00;5.13;;;7.90;99.60;;;;;;4936648;29;20033;-90
2021/04/25 08:05:37;;;;;;;10.13;4.53;;;8.10;99.10;;;;;;4941890;29;20046;-90
2021/04/25 08:08:03;;;;;;;11.07;5.50;;;8.20;99.00;;;;;;4958745;29;20024;-90
2021/04/25 08:10:29;;;;;;;10.40;5.18;;;8.20;98.30;;;;;;4941684;29;20053;-90
2021/04/25 08:12:55;;;;;;;13.85;5.53;;;8.20;98.00;;;;;;4950464;29;20434;-91
2021/04/25 08:15:23;;;;;;;16.55;5.72;;;8.30;97.60;;;;;;4950833;29;20101;-92
2021/04/25 08:17:50;;;;;;;11.15;4.57;;;8.30;97.40;;;;;;4949769;29;20035;-90
2021/04/25 08:20:17;;;;;;;13.68;5.15;;;8.30;97.10;;;;;;4946832;29;20038;-90
2021/04/25 08:22:43;;;;;;;15.13;5.22;;;8.30;96.70;;;;;;4944194;29;20016;-89
2021/04/25 08:25:09;;;;;;;10.38;4.97;;;8.40;96.60;;;;;;4942019;29;20122;-93
2021/04/25 08:27:35;;;;;;;8.90;4.80;;;8.50;96.20;;;;;;4942386;29;20039;-91
2021/04/25 08:30:03;;;;;;;7.95;3.92;;;8.60;95.70;;;;;;4943263;29;20055;-90
2021/04/25 08:32:29;;;;;;;15.07;5.13;;;8.60;95.20;;;;;;4944940;29;20028;-90
2021/04/25 08:34:54;;;;;;;10.23;5.03;;;8.80;95.00;;;;;;4943390;29;20027;-90
2021/04/25 08:37:20;;;;;;;13.77;5.93;;;9.00;94.50;;;;;;4942333;29;20023;-90
2021/04/25 08:39:46;;;;;;;12.60;5.25;;;9.00;94.10;;;;;;4942445;29;20110;-90
2021/04/25 08:42:15;;;;;;;15.95;5.45;;;9.10;93.90;;;;;;4942418;29;20062;-90
2021/04/25 08:44:45;;;;;;;11.43;5.15;;;9.30;93.60;;;;;;4942391;29;20023;-89
2021/04/25 08:47:12;;;;;;;9.95;4.60;;;9.50;92.90;;;;;;4957857;28;20041;-89
2021/04/25 08:49:39;;;;;;;12.30;5.88;;;9.50;92.30;;;;;;4942118;29;20028;-89
2021/04/25 08:52:06;;;;;;;9.65;4.95;;;9.50;91.90;;;;;;4942177;29;20043;-88
2021/04/25 08:54:32;;;;;;;13.18;5.53;;;9.60;91.90;;;;;;4939977;29;20168;-90
2021/04/25 08:56:57;;;;;;;10.52;4.97;;;9.70;91.50;;;;;;4940664;29;20043;-89
2021/04/25 08:59:23;;;;;;;14.25;6.03;;;9.80;91.30;;;;;;4956734;29;20106;-90
2021/04/25 09:01:50;;;;;;;9.02;4.30;;;10.00;91.20;;;;;;4940191;29;20027;-92
2021/04/25 09:04:15;;;;;;;9.75;4.90;;;10.20;90.30;;;;;;4941061;29;20023;-89
2021/04/25 09:07:01;;;;;;;12.85;5.63;;;10.30;88.30;;;;;;4937947;29;20443;-91
2021/04/25 09:11:55;;;;;;;8.65;4.65;;;10.30;85.90;;;;;;4962764;23;20063;-92
2021/04/25 09:14:23;;;;;;;9.63;5.00;;;10.20;85.40;;;;;;4960420;29;20382;-92
2021/04/25 09:17:00;;;;;;;12.10;5.50;;;10.20;85.10;;;;;;4945062;29;20031;-90
2021/04/25 09:19:50;;;;;;;8.90;4.15;;;10.30;84.90;;;;;;4947552;29;20023;-91
2021/04/25 09:22:16;;;;;;;13.23;5.20;;;10.40;83.90;;;;;;4952504;29;20027;-92
2021/04/25 09:24:43;;;;;;;9.70;4.88;;;10.30;83.40;;;;;;4956214;28;20015;-91
2021/04/25 09:27:09;;;;;;;10.40;4.90;;;10.30;83.30;;;;;;4961284;28;20027;-91
2021/04/25 09:29:54;;;;;;;12.15;4.85;;;10.50;82.90;;;;;;4960060;28;20038;-92
2021/04/25 09:32:22;;;;;;;10.70;4.50;;;10.70;82.20;;;;;;4966242;29;20023;-92
2021/04/25 09:34:49;;;;;;;11.98;4.90;;;11.00;81.70;;;;;;4944326;29;20055;-93
2021/04/25 09:37:19;;;;;;;11.20;5.10;;;11.20;80.80;;;;;;4942523;29;20027;-91
2021/04/25 09:40:08;;;;;;;11.07;4.95;;;11.40;79.80;;;;;;4958451;29;20442;-90
2021/04/25 09:43:01;;;;;;;9.20;4.45;;;11.60;78.50;;;;;;4941693;29;20482;-93
2021/04/25 09:45:33;;;;;;;8.35;4.45;;;11.90;77.50;;;;;;4940378;29;20027;-93
2021/04/25 09:48:01;;;;;;;8.07;4.60;;;12.00;76.20;;;;;;4958497;29;20022;-94
2021/04/25 09:50:30;;;;;;;12.60;5.40;;;12.10;75.80;;;;;;4941112;29;20046;-93
2021/04/25 09:52:56;;;;;;;8.68;4.95;;;12.30;75.50;;;;;;4939572;29;20487;-92
2021/04/25 09:55:36;;;;;;;12.00;4.22;;;12.50;74.80;;;;;;4940104;29;20038;-91
2021/04/25 09:58:08;;;;;;;10.77;5.07;;;12.70;73.90;;;;;;4940644;29;20027;-93
2021/04/25 10:00:39;;;;;;;12.52;5.90;;;12.60;73.20;;;;;;4938125;29;20026;-94
2021/04/25 10:03:10;;;;;;;14.43;6.05;;;12.60;72.70;;;;;;4939108;29;20031;-93
2021/04/25 10:05:38;;;;;;;13.82;6.15;;;12.40;72.50;;;;;;4938597;29;20109;-91
2021/04/25 10:08:05;;;;;;;11.35;5.70;;;12.20;72.50;;;;;;4937576;29;20093;-91
2021/04/25 10:10:31;;;;;;;13.77;5.60;;;12.20;73.00;;;;;;4936537;29;20055;-91
2021/04/25 10:12:57;;;;;;;14.85;5.70;;;12.20;73.30;;;;;;4937857;29;20035;-90
2021/04/25 10:15:24;;;;;;;13.38;5.32;;;12.10;73.00;;;;;;4937853;29;20487;-91
2021/04/25 10:17:54;;;;;;;13.85;5.43;;;12.10;72.70;;;;;;4937275;29;20023;-90
2021/04/25 10:20:21;;;;;;;12.48;5.85;;;12.00;72.60;;;;;;4932718;29;20031;-91
2021/04/25 10:22:50;;;;;;;9.13;5.15;;;12.10;72.90;;;;;;4937051;29;20027;-91
2021/04/25 10:25:36;;;;;;;12.90;5.63;;;12.20;72.50;;;;;;4936755;29;20066;-90
2021/04/25 10:28:10;;;;;;;9.60;4.78;;;12.40;72.50;;;;;;4938349;29;20486;-90
2021/04/25 10:30:39;;;;;;;11.00;4.30;;;12.80;71.90;;;;;;4939654;29;20122;-91
2021/04/25 10:33:05;;;;;;;10.43;4.63;;;13.00;70.30;;;;;;4953105;29;20046;-91
2021/04/25 10:35:33;;;;;;;9.07;4.35;;;13.20;69.30;;;;;;4937223;29;20134;-91
2021/04/25 10:38:00;;;;;;;10.38;5.40;;;13.30;68.50;;;;;;4938860;29;20027;-90
2021/04/25 10:40:37;;;;;;;8.90;5.22;;;13.40;67.90;;;;;;4939223;29;20027;-89
2021/04/25 10:43:08;;;;;;;13.10;5.47;;;13.50;67.70;;;;;;4937566;29;20101;-90
2021/04/25 10:45:59;;;;;;;14.20;5.57;;;13.60;67.70;;;;;;4937829;29;20081;-89
2021/04/25 10:48:34;;;;;;;9.63;5.45;;;13.60;67.00;;;;;;4938481;29;20037;-90
2021/04/25 10:51:09;;;;;;;11.27;5.15;;;13.50;66.70;;;;;;4938639;29;20015;-90
2021/04/25 10:53:42;;;;;;;10.95;4.90;;;13.40;66.60;;;;;;4955385;29;20035;-90
2021/04/25 10:56:14;;;;;;;10.77;5.32;;;13.40;66.60;;;;;;4939358;29;20126;-90
2021/04/25 10:58:42;;;;;;;10.20;5.53;;;13.60;66.30;;;;;;4940147;29;20047;-89
2021/04/25 11:01:39;;;;;;;9.63;4.97;;;13.60;65.60;;;;;;4939090;29;20118;-88
2021/04/25 11:04:07;;;;;;;11.70;5.45;;;13.70;65.10;;;;;;4939683;29;20037;-89
2021/04/25 11:06:33;;;;;;;12.48;6.15;;;13.70;64.50;;;;;;4938273;29;20024;-90
2021/04/25 11:08:59;;;;;;;12.18;5.13;;;13.70;64.50;;;;;;4938793;29;20118;-90
2021/04/25 11:11:36;;;;;;;22.25;6.47;;;13.90;64.60;;;;;;4938652;29;20146;-89
2021/04/25 11:14:03;;;;;;;11.52;5.65;;;14.20;63.90;;;;;;4940843;29;20031;-88
2021/04/25 11:16:30;;;;;;;10.02;5.10;;;14.40;63.20;;;;;;4964200;29;20035;-89
2021/04/25 11:19:12;;;;;;;11.10;5.38;;;14.50;62.70;;;;;;4947189;29;20028;-89
2021/04/25 11:21:48;;;;;;;12.27;5.45;;;14.50;62.60;;;;;;4945010;29;20043;-89
2021/04/25 11:24:13;;;;;;;10.15;5.50;;;14.40;62.20;;;;;;4961988;29;20023;-89
2021/04/25 11:26:41;;;;;;;7.80;4.32;;;14.40;62.40;;;;;;4943167;29;20112;-89
2021/04/25 11:29:16;;;;;;;10.02;4.22;;;14.40;62.50;;;;;;4939737;29;20020;-89
2021/04/25 11:31:54;;;;;;;7.28;5.00;;;14.30;62.50;;;;;;4938327;29;20078;-89
2021/04/25 11:34:29;;;;;;;9.30;4.53;;;14.40;62.50;;;;;;4939663;29;20024;-89
2021/04/25 11:37:07;;;;;;;11.55;5.30;;;14.50;62.30;;;;;;5110732;23;20054;-90
2021/04/25 11:39:47;;;;;;;9.20;5.47;;;14.70;62.00;;;;;;4930079;29;20032;-89
2021/04/25 11:42:24;;;;;;;9.20;4.78;;;14.70;61.70;;;;;;4949919;29;20035;-89
2021/04/25 11:44:50;;;;;;;10.25;5.38;;;14.90;61.70;;;;;;4926690;29;20060;-89
2021/04/25 11:47:18;;;;;;;12.25;5.45;;;15.20;61.50;;;;;;4927104;29;20110;-89
2021/04/25 11:49:46;;;;;;;9.07;5.43;;;15.50;60.80;;;;;;4927553;29;20399;-89
2021/04/25 11:52:20;;;;;;;14.65;5.10;;;15.70;60.10;;;;;;4927042;29;20028;-89
2021/04/25 11:55:06;;;;;;;8.98;4.88;;;16.00;59.40;;;;;;4925557;29;20080;-89
2021/04/25 11:57:35;;;;;;;9.35;5.10;;;16.10;59.10;;;;;;4926346;29;20051;-91
2021/04/25 12:00:08;;;;;;;9.75;5.03;;;16.10;58.50;;;;;;4926708;29;20407;-88
2021/04/25 12:02:36;;;;;;;9.77;4.78;;;16.10;59.10;;;;;;4925756;29;20024;-88
2021/04/25 12:05:01;;;;;;;9.15;4.60;;;16.10;58.50;;;;;;4926158;29;20491;-87
2021/04/25 12:07:48;;;;;;;14.35;5.25;;;16.10;58.20;;;;;;4927277;29;20044;-88
2021/04/25 12:10:51;;;;;;;10.02;5.07;;;16.10;58.30;;;;;;4930605;29;20016;-89
2021/04/25 12:13:29;;;;;;;10.55;4.28;;;16.10;58.00;;;;;;4907888;29;20379;-88
2021/04/25 12:16:00;;;;;;;9.88;5.07;;;16.10;57.90;;;;;;4927293;29;20539;-87
2021/04/25 12:18:31;;;;;;;9.60;5.03;;;16.00;57.60;;;;;;4926631;29;20023;-88
2021/04/25 12:21:06;;;;;;;9.25;4.88;;;16.20;57.80;;;;;;4926818;29;20123;-88
2021/04/25 12:23:48;;;;;;;8.35;4.55;;;16.30;57.40;;;;;;4929404;29;20028;-89
2021/04/25 12:26:16;;;;;;;9.20;5.10;;;16.40;57.30;;;;;;4930877;29;20451;-89
2021/04/25 12:28:48;;;;;;;8.70;4.85;;;16.60;57.10;;;;;;4928765;29;20119;-89
2021/04/25 12:31:16;;;;;;;8.27;4.88;;;16.60;56.70;;;;;;4931241;29;20059;-90
2021/04/25 12:33:54;;;;;;;9.00;4.80;;;16.70;56.90;;;;;;4929808;29;20091;-90
2021/04/25 12:36:22;;;;;;;8.25;4.60;;;17.00;57.00;;;;;;4929421;29;20031;-89
2021/04/25 12:39:05;;;;;;;8.95;4.32;;;17.40;56.60;;;;;;4930043;29;20035;-89
2021/04/25 12:41:42;;;;;;;8.52;4.72;;;17.60;56.10;;;;;;4928298;29;20032;-88
2021/04/25 12:44:08;;;;;;;12.90;5.47;;;17.50;55.40;;;;;;4932036;29;20036;-90
2021/04/25 12:46:34;;;;;;;8.65;5.20;;;17.50;55.60;;;;;;4932223;29;20032;-89
2021/04/25 12:49:05;;;;;;;8.50;5.13;;;17.40;55.50;;;;;;4934003;29;20083;-90
2021/04/25 12:51:43;;;;;;;8.88;4.55;;;17.40;55.50;;;;;;4931462;29;20038;-90